Hauptseite
METAR-TAF:

METAR-TAF

Flughäfen :

Flughafen Maputo

Maputo, Mosambik

Breite: 25-55S, Länge: 032-34E, Höhe: 39 m

Beobachtung

Neuester Wetterbericht von vor 3 Stunden und 30 Minuten, um 22:00 UTC
Wind 13 kt aus Südwest
Temperatur 22°C
Luftfeuchtigkeit 60%
Luftdruck 1023 hPa
Sichtweite 10 km oder mehr
Durchbrochene Bewölkung in der Höhe von 2000 ft

METAR: FQMA 022200Z 23013KT 9999 BKN020 22/14 Q1023 NOSIG

Zeit: 03:30 (01:30 UTC)

Prognose

Neuester Wetterbericht von vor 3 Stunden und 30 Minuten, um 22:00 UTC
Gültige Prognose vom 03 um 00 UTC bis 04 um 06 UTC
Wind 13 kt aus Süd
Sichtweite 10 km oder mehr
Durchbrochene Bewölkung in der Höhe von 2000 ft
Übergehend zu
vom 03 um 12 UTC bis 03 um 14 UTC
Wind 10 kt aus Ost
Übergehend zu
vom 03 um 18 UTC bis 03 um 20 UTC
Wind 10 kt aus Süd

TAF: FQMA 022200Z 0300/0406 18013KT 9999 BKN020 TX28/0313Z TN20/0303Z BECMG 0312/0314 10010KT BECMG 0318/0320 17010KT

Wetterbeobachtungen und Prognosen von mehr als 4000 Flughäfen (METAR und TAF Bericht).

Die verfügbaren Stationen werden durch gelbe und rote Markierungen auf der Karte dargestellt.

Führen Sie die Maus auf sie, um den Namen der Station zu sehen.

Darauf klicken, um die Beobachtung von Wetterbeobachtungen und Prognosen zu sehen.

Um die Karte zu ändern : klicken Sie auf den grünen Tasten mit einem schwarzen Kreuz Zum Vergrößern, auf den grünen Button mit einem Gedankenstrich zu verkleinern, oder auf die grünen Pfeile für benachbarte Karten.


METAR-TAF: